Kaktovik, AK

8:29 AM AKDT on August 29, 2016 (GMT -0800)
Barter Island LRRS | | Change Station

Elev 7 ft 70.13 °N, 143.58 °W | Updated 5 minutes ago

Light Rain
Light Rain Mist
37 °F
Feels Like 29 °F
N
13
Wind Variable Wind from North

Today
High -- | Low -- °F
--% Chance of Precip.
Yesterday
High -- | Low -- °F
Precip. -- in
Pressure 30.67 in
Visibility 1.2 miles
Clouds Overcast 700 ft
Windchill 29 °F
Dew Point 37 °F
Humidity 100%
Rainfall 0.10 in
Snow Depth Not available.
5:38 AM 9:27 PM
Waning Crescent, 8% visible
SPECI PABA 291624Z 35011KT 1 1/4SM -RA BR OVC007 03/03 A3067 RMK AO2 P0000
Pressure 30.67 in
Visibility 1.2 miles
Clouds Overcast 700 ft
Windchill 29 °F
Dew Point 37 °F
Humidity 100%
Rainfall 0.10 in
Snow Depth Not available.
5:38 AM 9:27 PM
Waning Crescent, 8% visible
SPECI PABA 291624Z 35011KT 1 1/4SM -RA BR OVC007 03/03 A3067 RMK AO2 P0000

10-Day Weather Forecast

Almanac

Astronomy

Aug. 29, 2016 Rise Set
Actual Time
Civil Twilight
Nautical Twilight
Astronomical Twilight
Moon
Length of Visible Light
Length of Day
Tomorrow will be .
, % of the Moon is Illuminated

Today's Extremes

State Highs State Lows

Community

WunderPhotos

Upload Photos

1,935,867 photos uploaded!

WunderBlog® & News

Nearby

Air Quality

  Air Quality AQ Index Pollutant
Not available.

Snow Depth

Station Depth Elevation

Earthquake Activity

City Distance Mag. Time & Date
Minimum magnitude displayed is 2.5.

Coastal Water Temperatures

Place Temperature

Stations

Nearby Weather Stations

Station Location Temp. Windchill Dew Point Humidity Wind Precip. Elev Updated Type
                   

Watches & Warnings

There are currently no watches in effect.